Time;durP1;ratioP1;P1;durP2;ratioP2;P2;SDS_P1;SDS_P2;PMS_P1;PMS_P2;Temp;Humidity;BMP_temperature;BMP_pressure;BME280_temperature;BME280_humidity;BME280_pressure;Samples;Min_cycle;Max_cycle;Signal;HPM_P1;HPM_P2
2021/05/29 00:01:20;;;;;;;6.20;3.85;;;;;;;11.51;72.24;101100.31;4992116;28;20058;-81
2021/05/29 00:03:47;;;;;;;5.20;4.03;;;;;;;11.48;72.14;101100.47;4994081;28;20503;-81
2021/05/29 00:06:14;;;;;;;6.30;3.92;;;;;;;11.47;72.69;101104.03;4992047;28;20081;-81
2021/05/29 00:08:42;;;;;;;5.28;3.47;;;;;;;11.38;72.17;101089.31;4995930;28;20084;-81
2021/05/29 00:11:09;;;;;;;4.40;3.53;;;;;;;11.36;72.27;101085.88;4996486;28;20052;-81
2021/05/29 00:13:37;;;;;;;4.28;3.70;;;;;;;11.37;72.62;101102.63;4995211;28;20057;-81
2021/05/29 00:16:06;;;;;;;6.05;3.60;;;;;;;11.33;72.87;101101.91;4981652;28;20046;-80
2021/05/29 00:18:32;;;;;;;6.03;3.95;;;;;;;11.28;72.46;101093.28;4993468;28;20709;-81
2021/05/29 00:20:59;;;;;;;4.70;3.60;;;;;;;11.28;72.97;101095.94;4962969;28;20083;-81
2021/05/29 00:23:26;;;;;;;5.13;3.55;;;;;;;11.32;73.10;101099.31;4971867;28;20056;-81
2021/05/29 00:25:53;;;;;;;5.38;3.60;;;;;;;11.30;73.10;101104.69;4976986;28;20050;-81
2021/05/29 00:28:19;;;;;;;5.50;3.60;;;;;;;11.29;72.86;101096.78;4982903;28;20121;-81
2021/05/29 00:30:46;;;;;;;4.63;4.03;;;;;;;11.29;72.18;101102.09;4972448;28;20882;-81
2021/05/29 00:33:13;;;;;;;4.72;3.67;;;;;;;11.23;72.27;101100.53;4978220;28;20493;-81
2021/05/29 00:35:40;;;;;;;6.75;4.28;;;;;;;11.14;73.07;101092.94;4992451;28;20056;-81
2021/05/29 00:38:07;;;;;;;5.95;3.90;;;;;;;11.17;72.74;101103.44;4987468;28;20077;-82
2021/05/29 00:40:35;;;;;;;4.45;3.88;;;;;;;11.18;72.97;101115.72;4975078;28;20144;-80
2021/05/29 00:43:03;;;;;;;4.95;3.95;;;;;;;11.12;72.66;101098.28;4974982;28;20049;-82
2021/05/29 00:45:30;;;;;;;6.70;4.32;;;;;;;11.11;73.15;101109.81;4978297;28;20050;-82
2021/05/29 00:47:59;;;;;;;3.83;3.47;;;;;;;11.09;73.02;101110.78;4980724;28;20046;-82
2021/05/29 00:50:28;;;;;;;5.72;3.97;;;;;;;11.04;73.61;101118.03;4984301;28;20038;-82
2021/05/29 00:52:55;;;;;;;5.75;4.20;;;;;;;11.02;73.40;101111.97;4975394;28;20138;-82
2021/05/29 00:55:22;;;;;;;4.03;3.40;;;;;;;10.90;73.25;101100.88;4975868;28;20072;-82
2021/05/29 00:57:51;;;;;;;4.22;3.80;;;;;;;10.96;74.16;101109.53;4918306;28;20062;-82
2021/05/29 01:00:21;;;;;;;5.13;4.25;;;;;;;10.94;74.44;101112.22;4992491;28;20141;-81
2021/05/29 01:02:50;;;;;;;5.05;4.15;;;;;;;10.93;74.44;101113.16;4994494;28;20050;-82
2021/05/29 01:05:18;;;;;;;4.28;3.70;;;;;;;10.86;74.59;101117.81;4988691;28;20518;-82
2021/05/29 01:07:49;;;;;;;4.50;3.63;;;;;;;10.86;74.80;101116.97;4993416;28;20051;-83
2021/05/29 01:10:18;;;;;;;5.20;3.97;;;;;;;10.84;74.65;101119.66;4990698;28;20508;-81
2021/05/29 01:12:45;;;;;;;7.82;4.25;;;;;;;10.80;75.01;101123.34;4987920;28;20050;-82
2021/05/29 01:15:14;;;;;;;5.35;4.20;;;;;;;10.76;74.58;101119.06;4995820;28;20109;-82
2021/05/29 01:17:40;;;;;;;4.88;3.63;;;;;;;10.73;74.65;101116.53;4971531;28;20073;-82
2021/05/29 01:20:08;;;;;;;6.38;3.85;;;;;;;10.74;74.90;101127.97;4989886;28;20047;-82
2021/05/29 01:22:38;;;;;;;8.75;4.40;;;;;;;10.71;75.30;101126.31;4978629;28;20067;-81
2021/05/29 01:25:23;;;;;;;5.82;4.50;;;;;;;10.69;74.99;101122.88;4987662;28;20066;-82
2021/05/29 01:28:14;;;;;;;7.07;4.40;;;;;;;10.68;75.13;101122.94;4976922;28;20054;-81
2021/05/29 01:31:01;;;;;;;6.15;4.10;;;;;;;10.63;74.90;101112.47;4985473;28;20045;-82
2021/05/29 01:33:32;;;;;;;5.93;4.53;;;;;;;10.61;75.53;101114.31;4975221;28;20053;-82
2021/05/29 01:36:06;;;;;;;;;;;;;;;10.63;75.12;101106.31;4990402;28;20043;-82
2021/05/29 01:38:34;;;;;;;5.70;4.53;;;;;;;10.57;74.96;101096.81;4990819;28;19940;-81
2021/05/29 01:41:08;;;;;;;6.43;5.00;;;;;;;10.44;74.82;101090.22;4992785;28;20058;-81
2021/05/29 01:43:37;;;;;;;8.68;4.43;;;;;;;10.50;74.98;101106.78;4994553;28;20046;-82
2021/05/29 01:46:04;;;;;;;5.07;4.47;;;;;;;10.50;75.30;101105.91;4971859;28;20052;-82
2021/05/29 01:48:45;;;;;;;6.10;4.25;;;;;;;10.45;74.87;101100.75;4990722;28;20054;-82
2021/05/29 01:51:17;;;;;;;6.13;4.05;;;;;;;10.43;75.34;101104.38;4962376;28;20142;-82
2021/05/29 01:53:44;;;;;;;4.90;4.40;;;;;;;10.43;75.15;101107.88;4973177;28;20058;-82
2021/05/29 01:56:13;;;;;;;4.72;3.85;;;;;;;10.43;74.98;101109.66;4997330;28;20046;-81
2021/05/29 01:58:41;;;;;;;5.57;3.75;;;;;;;10.43;74.83;101113.19;4975828;28;20389;-82
2021/05/29 02:01:11;;;;;;;6.35;4.15;;;;;;;10.39;75.04;101098.31;4995607;28;20051;-81
2021/05/29 02:03:40;;;;;;;4.88;4.03;;;;;;;10.41;74.91;101104.41;4992543;28;20074;-82
2021/05/29 02:06:07;;;;;;;4.70;3.58;;;;;;;10.39;75.03;101108.91;5005960;28;20039;-81
2021/05/29 02:08:34;;;;;;;4.28;3.80;;;;;;;10.37;75.60;101100.19;4997330;28;20078;-81
2021/05/29 02:11:02;;;;;;;5.72;4.07;;;;;;;10.33;74.96;101097.69;5005038;28;20048;-82
2021/05/29 02:13:37;;;;;;;5.47;3.72;;;;;;;10.25;75.75;101095.28;5012011;28;20037;-81
2021/05/29 02:16:06;;;;;;;5.95;3.80;;;;;;;10.26;75.56;101104.09;5015380;28;20033;-82
2021/05/29 02:18:33;;;;;;;4.57;3.85;;;;;;;10.21;75.24;101104.28;5011313;28;20042;-82
2021/05/29 02:21:02;;;;;;;6.43;4.20;;;;;;;10.21;75.92;101098.97;5002525;28;20051;-82
2021/05/29 02:23:32;;;;;;;5.43;4.15;;;;;;;10.23;75.50;101101.56;5016987;28;20061;-82
2021/05/29 02:26:03;;;;;;;6.22;3.97;;;;;;;10.19;75.73;101095.50;4998269;28;20093;-82
2021/05/29 02:28:30;;;;;;;;;;;;;;;10.19;75.81;101106.09;5008782;28;20045;-82
2021/05/29 02:30:58;;;;;;;5.30;4.25;;;;;;;10.16;75.95;101117.63;4994114;28;20628;-80
2021/05/29 02:33:26;;;;;;;5.57;3.80;;;;;;;10.13;76.36;101100.97;4993032;28;20056;-81
2021/05/29 02:35:53;;;;;;;5.57;4.22;;;;;;;10.12;76.24;101104.53;5003746;28;20054;-80
2021/05/29 02:38:20;;;;;;;6.63;4.00;;;;;;;10.08;76.50;101103.75;5003464;28;20050;-81
2021/05/29 02:40:47;;;;;;;4.97;3.85;;;;;;;10.08;76.48;101103.75;4997518;28;20042;-80
2021/05/29 02:43:14;;;;;;;5.25;3.95;;;;;;;10.09;76.26;101109.91;4995294;28;20054;-80
2021/05/29 02:45:41;;;;;;;4.43;3.92;;;;;;;10.06;76.53;101108.28;5006604;28;20366;-81
2021/05/29 02:48:10;;;;;;;5.90;4.40;;;;;;;10.08;76.06;101103.75;4988908;28;20052;-82
2021/05/29 02:50:39;;;;;;;4.30;3.83;;;;;;;10.05;76.07;101103.03;5013644;28;20588;-82
2021/05/29 02:53:06;;;;;;;6.57;3.60;;;;;;;10.04;75.94;101099.50;4987884;28;20400;-82
2021/05/29 02:55:33;;;;;;;4.85;3.60;;;;;;;10.02;76.30;101098.69;5001967;28;20057;-80
2021/05/29 02:58:00;;;;;;;5.18;3.50;;;;;;;10.01;76.47;101091.66;5003691;28;20093;-82
2021/05/29 03:00:30;;;;;;;4.93;3.58;;;;;;;10.02;76.66;101096.06;5009331;28;20050;-81
2021/05/29 03:03:02;;;;;;;5.00;3.70;;;;;;;10.02;76.64;101092.53;5014024;28;20030;-81
2021/05/29 03:05:31;;;;;;;7.93;3.78;;;;;;;10.02;76.64;101090.75;4995533;28;20050;-82
2021/05/29 03:07:58;;;;;;;5.72;3.65;;;;;;;9.97;77.23;101084.75;5006612;28;20073;-82
2021/05/29 03:10:25;;;;;;;6.20;3.45;;;;;;;9.99;77.45;101093.50;5009480;28;20110;-82
2021/05/29 03:12:53;;;;;;;4.35;3.55;;;;;;;9.99;77.16;101096.16;5000066;28;20038;-82
2021/05/29 03:15:23;;;;;;;5.65;3.65;;;;;;;9.97;77.61;101105.91;5009525;28;20073;-81
2021/05/29 03:17:50;;;;;;;;;;;;;;;9.97;77.48;101105.91;4995712;28;20098;-82
2021/05/29 03:20:20;;;;;;;5.43;3.80;;;;;;;9.96;77.63;101109.47;4991796;28;19966;-81
2021/05/29 03:22:47;;;;;;;5.03;3.65;;;;;;;9.94;77.95;101105.13;5003837;28;20043;-82
2021/05/29 03:25:16;;;;;;;5.55;3.78;;;;;;;9.92;77.91;101113.13;4998918;28;20077;-82
2021/05/29 03:27:44;;;;;;;5.03;3.65;;;;;;;9.84;77.86;101104.59;5004994;28;20038;-82
2021/05/29 03:30:14;;;;;;;4.53;3.38;;;;;;;9.80;77.95;101111.75;4993075;28;20132;-82
2021/05/29 03:32:41;;;;;;;6.20;3.78;;;;;;;9.74;78.42;101106.69;4998852;28;20509;-82
2021/05/29 03:35:10;;;;;;;4.18;3.65;;;;;;;9.71;78.50;101109.41;5002004;28;20042;-82
2021/05/29 03:37:37;;;;;;;5.45;4.13;;;;;;;9.75;78.92;101120.78;4980294;28;20046;-82
2021/05/29 03:40:07;;;;;;;8.60;4.90;;;;;;;9.73;78.90;101126.09;4988648;28;20193;-81
2021/05/29 03:42:34;;;;;;;4.97;4.47;;;;;;;9.72;78.93;101126.16;4995363;28;20061;-81
2021/05/29 03:45:00;;;;;;;7.78;4.90;;;;;;;9.70;78.99;101127.97;5006646;28;20102;-81
2021/05/29 03:47:31;;;;;;;5.60;4.57;;;;;;;9.73;79.24;101123.47;4995543;28;20377;-81
2021/05/29 03:49:57;;;;;;;5.25;4.30;;;;;;;9.76;79.06;101125.13;4999530;28;20142;-79
2021/05/29 03:52:24;;;;;;;5.50;4.55;;;;;;;9.77;79.02;101117.13;5007994;28;20050;-81
2021/05/29 03:54:50;;;;;;;7.18;4.57;;;;;;;9.84;78.75;101133.69;4986059;28;20049;-83
2021/05/29 03:57:17;;;;;;;6.60;4.63;;;;;;;9.88;78.32;101131.81;4993798;28;20046;-81
2021/05/29 03:59:44;;;;;;;6.40;5.20;;;;;;;9.72;77.82;101131.44;4994343;28;20046;-80
2021/05/29 04:02:11;;;;;;;6.97;5.05;;;;;;;9.54;78.55;101132.88;4991705;28;20042;-80
2021/05/29 04:04:37;;;;;;;12.68;5.70;;;;;;;9.53;79.50;101144.38;4993700;28;20065;-80
2021/05/29 04:07:04;;;;;;;6.43;5.40;;;;;;;9.52;79.56;101140.00;4991399;28;20130;-80
2021/05/29 04:09:31;;;;;;;6.03;5.10;;;;;;;9.52;79.89;101145.28;4991107;28;20058;-81
2021/05/29 04:11:58;;;;;;;6.55;5.50;;;;;;;9.56;80.18;101139.00;4993848;28;20636;-81
2021/05/29 04:14:25;;;;;;;6.78;5.70;;;;;;;9.62;80.27;101141.41;4991729;28;20153;-80
2021/05/29 04:16:51;;;;;;;9.30;6.03;;;;;;;9.67;80.02;101139.50;4994060;28;20046;-82
2021/05/29 04:19:18;;;;;;;6.10;5.40;;;;;;;9.67;79.90;101141.28;4973920;28;20129;-82
2021/05/29 04:21:45;;;;;;;8.15;5.85;;;;;;;9.75;80.10;101141.94;4981520;28;20433;-82
2021/05/29 04:24:12;;;;;;;7.45;5.68;;;;;;;9.80;79.72;101146.13;4972736;28;20154;-82
2021/05/29 04:26:39;;;;;;;7.82;5.82;;;;;;;9.85;79.40;101153.94;4989440;28;20133;-81
2021/05/29 04:29:06;;;;;;;11.15;6.32;;;;;;;9.86;78.86;101147.72;4974433;28;20058;-82
2021/05/29 04:31:35;;;;;;;8.60;6.45;;;;;;;9.88;78.31;101153.84;4994649;28;20081;-82
2021/05/29 04:34:03;;;;;;;8.02;6.28;;;;;;;9.89;78.37;101154.72;5000000;28;20881;-81
2021/05/29 04:36:29;;;;;;;7.60;5.97;;;;;;;9.93;78.10;101151.91;4987694;28;20070;-81
2021/05/29 04:38:56;;;;;;;9.00;6.55;;;;;;;9.93;78.01;101145.75;4972458;28;20130;-81
2021/05/29 04:41:22;;;;;;;7.93;6.20;;;;;;;10.03;77.75;101155.13;4994303;28;20046;-81
2021/05/29 04:43:49;;;;;;;7.95;5.93;;;;;;;10.12;77.27;101150.38;4968145;28;20046;-80
2021/05/29 04:46:17;;;;;;;6.47;5.60;;;;;;;10.22;76.79;101158.94;4989778;28;26024;-80
2021/05/29 04:48:43;;;;;;;7.90;5.63;;;;;;;10.30;76.77;101151.59;4973809;28;20122;-81
2021/05/29 04:51:14;;;;;;;7.00;5.25;;;;;;;10.39;77.44;101156.56;4988185;28;20077;-80
2021/05/29 04:53:47;;;;;;;6.75;5.55;;;;;;;10.49;77.02;101168.59;5009054;28;20058;-80
2021/05/29 04:56:16;;;;;;;9.70;5.93;;;;;;;10.57;76.43;101168.31;4984549;28;20046;-81
2021/05/29 04:58:43;;;;;;;6.78;4.82;;;;;;;10.61;75.79;101169.94;4989605;28;20141;-81
2021/05/29 05:01:12;;;;;;;6.35;4.47;;;;;;;10.73;75.72;101177.44;4977317;28;20042;-80
2021/05/29 05:03:40;;;;;;;8.10;5.20;;;;;;;10.81;74.77;101175.41;4992434;28;20129;-82
2021/05/29 05:06:08;;;;;;;6.80;5.28;;;;;;;10.86;74.52;101170.78;4971662;28;20046;-80
2021/05/29 05:08:34;;;;;;;6.25;4.50;;;;;;;10.95;73.79;101182.00;4989017;28;20053;-82
2021/05/29 05:11:01;;;;;;;8.15;4.90;;;;;;;11.03;74.36;101179.91;4989581;28;20157;-81
2021/05/29 05:13:28;;;;;;;6.93;5.05;;;;;;;11.06;73.86;101190.41;4983581;28;20052;-81
2021/05/29 05:15:55;;;;;;;8.18;5.20;;;;;;;11.10;73.30;101187.59;5002749;28;20037;-80
2021/05/29 05:18:22;;;;;;;6.05;4.63;;;;;;;11.16;73.44;101186.53;4986833;28;20122;-80
2021/05/29 05:20:50;;;;;;;7.38;4.95;;;;;;;11.26;73.46;101195.88;4998911;28;20047;-79
2021/05/29 05:23:21;;;;;;;6.65;4.78;;;;;;;11.35;72.54;101189.34;4997823;28;20092;-81
2021/05/29 05:25:51;;;;;;;5.63;4.60;;;;;;;11.43;72.60;101200.53;4976871;28;20046;-80
2021/05/29 05:28:25;;;;;;;7.80;4.63;;;;;;;11.46;71.98;101196.00;4990046;28;20058;-82
2021/05/29 05:30:56;;;;;;;6.03;4.15;;;;;;;11.54;71.78;101195.69;5004829;28;20144;-78
2021/05/29 05:33:25;;;;;;;7.15;4.50;;;;;;;11.60;71.40;101198.97;5001662;28;20114;-81
2021/05/29 05:35:53;;;;;;;7.45;4.63;;;;;;;11.68;70.83;101195.16;4997822;28;20046;-79
2021/05/29 05:38:20;;;;;;;7.38;4.65;;;;;;;11.71;71.26;101195.03;4985521;28;20046;-79
2021/05/29 05:40:47;;;;;;;6.38;4.40;;;;;;;11.81;71.12;101193.78;4998487;28;20137;-81
2021/05/29 05:43:14;;;;;;;6.10;4.28;;;;;;;11.86;70.42;101194.47;4981082;28;20046;-81
2021/05/29 05:45:41;;;;;;;5.00;4.10;;;;;;;11.89;70.29;101195.22;4974769;28;20054;-80
2021/05/29 05:48:08;;;;;;;4.65;3.67;;;;;;;11.98;69.89;101193.09;4966665;28;20054;-80
2021/05/29 05:50:35;;;;;;;8.10;3.88;;;;;;;12.04;69.80;101206.16;4989441;28;20046;-79
2021/05/29 05:53:01;;;;;;;4.80;3.50;;;;;;;12.08;69.38;101198.00;4998698;28;20058;-79
2021/05/29 05:55:28;;;;;;;6.22;3.85;;;;;;;12.15;69.13;101193.28;5008323;28;20094;-81
2021/05/29 05:57:55;;;;;;;5.07;3.50;;;;;;;12.26;69.42;101196.41;5000872;28;20081;-81
2021/05/29 06:00:23;;;;;;;7.32;3.55;;;;;;;12.98;67.52;101203.00;4980796;28;20068;-80
2021/05/29 06:02:50;;;;;;;5.38;3.00;;;;;;;15.06;60.35;101205.38;4983280;28;20106;-81
2021/05/29 06:05:17;;;;;;;6.45;2.55;;;;;;;15.95;55.78;101209.44;4990702;28;20482;-81
2021/05/29 06:07:44;;;;;;;4.28;2.63;;;;;;;16.64;54.47;101211.69;5012199;28;20114;-82
2021/05/29 06:10:12;;;;;;;3.28;2.60;;;;;;;18.01;51.03;101199.59;4988290;28;20042;-81
2021/05/29 06:12:43;;;;;;;2.72;2.05;;;;;;;20.13;45.58;101205.38;4989767;28;20068;-81
2021/05/29 06:20:49;;;;;;;4.05;1.98;;;;;;;24.72;34.55;101211.78;5005826;28;20046;-82
2021/05/29 06:23:17;;;;;;;3.85;2.15;;;;;;;24.63;34.36;101218.06;4985447;28;20050;-82
2021/05/29 06:25:43;;;;;;;3.42;1.95;;;;;;;24.91;32.72;101207.34;4979336;28;20121;-82
2021/05/29 06:28:10;;;;;;;2.25;2.03;;;;;;;25.26;32.18;101218.44;4999350;28;20038;-82
2021/05/29 06:30:37;;;;;;;3.63;2.05;;;;;;;25.95;31.21;101200.91;4980019;28;20065;-82
2021/05/29 06:33:04;;;;;;;1.85;1.67;;;;;;;26.58;31.15;101218.09;4983007;28;20057;-80
2021/05/29 06:35:31;;;;;;;2.30;1.70;;;;;;;27.00;29.17;101222.88;4988277;28;20047;-82
2021/05/29 06:37:59;;;;;;;2.25;1.50;;;;;;;27.39;29.97;101218.69;4975642;28;20048;-83
2021/05/29 06:40:27;;;;;;;2.80;1.60;;;;;;;27.76;28.50;101223.03;4976995;28;20049;-81
2021/05/29 06:42:54;;;;;;;2.00;1.30;;;;;;;28.03;28.20;101225.50;4991937;28;20038;-81
2021/05/29 06:45:20;;;;;;;2.63;1.42;;;;;;;28.37;27.18;101230.06;4975678;28;20150;-81
2021/05/29 06:47:47;;;;;;;2.33;1.00;;;;;;;28.62;26.24;101215.47;4996255;28;20090;-82
2021/05/29 06:50:14;;;;;;;1.65;1.20;;;;;;;27.93;26.12;101225.66;4971219;28;20078;-81
2021/05/29 06:52:45;;;;;;;1.52;1.10;;;;;;;27.34;27.45;101225.66;4976621;28;20042;-80
2021/05/29 07:01:00;;;;;;;1.60;1.20;;;;;;;27.28;27.67;101231.72;4957250;28;20130;-81
2021/05/29 07:03:27;;;;;;;2.88;1.10;;;;;;;26.98;27.52;101227.59;4964639;28;20086;-81
2021/05/29 07:05:54;;;;;;;2.28;1.50;;;;;;;26.65;28.24;101227.31;4977845;28;20050;-81
2021/05/29 07:08:20;;;;;;;1.63;1.10;;;;;;;26.67;28.28;101232.56;4971478;28;20048;-80
2021/05/29 07:10:47;;;;;;;1.75;1.20;;;;;;;26.85;28.12;101226.13;4980493;28;20464;-82
2021/05/29 07:13:13;;;;;;;2.97;1.27;;;;;;;27.22;27.83;101234.09;5003082;28;20046;-79
2021/05/29 07:15:40;;;;;;;2.22;1.05;;;;;;;27.06;27.38;101219.53;5007745;28;20080;-81
2021/05/29 07:18:11;;;;;;;3.92;1.30;;;;;;;26.23;28.61;101228.88;5007984;28;20044;-84
2021/05/29 07:20:39;;;;;;;4.18;1.17;;;;;;;25.74;29.49;101226.44;5010175;28;20038;-79
2021/05/29 07:23:06;;;;;;;2.30;1.05;;;;;;;25.90;29.16;101228.50;4981444;28;20064;-81
2021/05/29 07:25:34;;;;;;;1.92;1.10;;;;;;;26.17;29.74;101233.06;4992611;28;20072;-81
2021/05/29 07:28:01;;;;;;;1.85;1.00;;;;;;;26.53;28.09;101239.41;4994715;28;20054;-80
2021/05/29 07:30:27;;;;;;;1.20;1.10;;;;;;;26.59;28.00;101236.09;4982526;28;20042;-82
2021/05/29 07:32:54;;;;;;;1.30;1.20;;;;;;;26.85;27.63;101228.84;5001660;28;20115;-81
2021/05/29 07:35:23;;;;;;;1.83;0.90;;;;;;;26.47;27.60;101232.72;5003472;28;20066;-80
2021/05/29 07:37:50;;;;;;;1.92;0.80;;;;;;;26.73;28.08;101230.09;4999328;28;20058;-80
2021/05/29 07:40:16;;;;;;;1.20;0.80;;;;;;;27.27;27.42;101222.72;4961415;28;20051;-81
2021/05/29 07:42:44;;;;;;;1.20;0.70;;;;;;;27.44;26.62;101221.81;4995286;28;20691;-80
2021/05/29 07:45:12;;;;;;;1.13;0.82;;;;;;;27.46;26.07;101232.53;4982749;28;20062;-81
2021/05/29 07:47:39;;;;;;;2.05;0.55;;;;;;;27.09;26.22;101222.75;4975818;28;20052;-81
2021/05/29 07:50:09;;;;;;;1.05;0.80;;;;;;;26.97;26.76;101223.19;4987789;28;20460;-80
2021/05/29 07:52:36;;;;;;;1.52;0.95;;;;;;;26.77;26.96;101220.59;4973577;28;20122;-81
2021/05/29 07:55:06;;;;;;;1.35;0.90;;;;;;;26.88;27.53;101220.38;4993028;28;20050;-82
2021/05/29 07:57:33;;;;;;;1.23;0.95;;;;;;;26.78;26.43;101222.31;4988752;28;20038;-83
2021/05/29 08:00:00;;;;;;;1.45;0.80;;;;;;;26.62;26.96;101224.88;4995237;28;20074;-87
2021/05/29 08:02:30;;;;;;;1.90;0.77;;;;;;;27.13;26.86;101221.44;5006036;28;20101;-87
2021/05/29 08:04:59;;;;;;;2.10;0.88;;;;;;;26.81;28.07;101213.84;5004491;28;20128;-81
2021/05/29 08:07:26;;;;;;;2.20;1.67;;;;;;;26.48;27.59;101223.56;4925216;28;20052;-83
2021/05/29 08:09:55;;;;;;;2.53;1.10;;;;;;;26.50;27.92;101227.00;4980612;28;20050;-86
2021/05/29 08:12:24;;;;;;;1.73;0.90;;;;;;;27.02;27.08;101220.84;4981671;28;20058;-85
2021/05/29 08:14:51;;;;;;;2.30;0.90;;;;;;;26.92;27.10;101229.91;4980545;28;20074;-85
2021/05/29 08:17:18;;;;;;;1.55;0.90;;;;;;;26.50;27.79;101227.00;4995359;28;20050;-86
2021/05/29 08:19:45;;;;;;;2.42;0.98;;;;;;;26.61;27.59;101227.75;4996036;28;20104;-85
2021/05/29 08:22:11;;;;;;;0.98;0.85;;;;;;;26.89;27.48;101232.97;5000053;28;20053;-85
2021/05/29 08:24:38;;;;;;;1.35;0.77;;;;;;;26.60;27.42;101235.09;4982598;28;20076;-85
2021/05/29 08:27:06;;;;;;;1.00;0.85;;;;;;;25.92;28.08;101225.63;4987077;28;20065;-84
2021/05/29 08:29:33;;;;;;;1.95;0.90;;;;;;;25.37;28.29;101239.09;5003074;28;20084;-82
2021/05/29 08:32:02;;;;;;;1.35;1.00;;;;;;;24.63;29.78;101236.16;4998622;28;20046;-84
2021/05/29 08:34:30;;;;;;;0.70;0.70;;;;;;;24.22;30.25;101232.69;4986298;28;20061;-86
2021/05/29 08:36:57;;;;;;;1.23;0.90;;;;;;;24.07;31.14;101228.66;5004145;28;20042;-85
2021/05/29 08:39:24;;;;;;;1.63;0.95;;;;;;;24.34;30.46;101228.03;4991142;28;20046;-80
2021/05/29 08:41:53;;;;;;;0.93;0.82;;;;;;;24.36;31.12;101235.03;4995421;28;20118;-83
2021/05/29 08:44:21;;;;;;;1.58;1.05;;;;;;;23.12;31.30;101230.78;4998459;28;20065;-83
2021/05/29 08:46:49;;;;;;;1.40;0.73;;;;;;;21.88;33.61;101231.31;5013609;28;20146;-83
2021/05/29 08:49:21;;;;;;;;;;;;;;;21.41;35.27;101238.63;5003604;28;20047;-82
2021/05/29 08:51:48;;;;;;;1.38;0.80;;;;;;;21.05;35.78;101231.59;5011827;28;19926;-82
2021/05/29 08:54:15;;;;;;;3.28;1.10;;;;;;;20.49;37.30;101234.06;5002891;28;20050;-81
2021/05/29 08:56:42;;;;;;;2.05;1.00;;;;;;;20.10;38.92;101239.69;4965373;28;20074;-80
2021/05/29 08:59:10;;;;;;;3.08;1.05;;;;;;;19.67;39.27;101250.00;4987831;28;20054;-82
2021/05/29 09:01:36;;;;;;;1.63;1.20;;;;;;;19.38;39.42;101242.13;4964488;28;20051;-85
2021/05/29 09:04:05;;;;;;;2.05;1.10;;;;;;;19.03;39.70;101239.22;4991014;28;20042;-81
2021/05/29 09:06:39;;;;;;;;;;;;;;;18.81;41.21;101249.69;5008752;28;20034;-84
2021/05/29 09:09:13;;;;;;;1.60;1.10;;;;;;;18.81;41.57;101241.66;4991144;28;19934;-80
2021/05/29 09:11:58;;;;;;;1.40;1.08;;;;;;;19.05;41.66;101242.66;4985491;28;20117;-82
2021/05/29 09:14:37;;;;;;;2.25;1.13;;;;;;;19.02;40.34;101244.69;5004552;28;20047;-82
2021/05/29 09:17:15;;;;;;;1.67;1.27;;;;;;;18.82;40.68;101246.06;4999497;28;20042;-80
2021/05/29 09:19:57;;;;;;;1.55;1.25;;;;;;;18.66;41.29;101237.31;4986943;28;20042;-82
2021/05/29 09:22:27;;;;;;;4.28;1.30;;;;;;;18.66;42.16;101240.88;5007326;28;20046;-80
2021/05/29 09:25:14;;;;;;;1.33;1.20;;;;;;;18.85;41.92;101241.34;4994331;28;20074;-81
2021/05/29 09:28:04;;;;;;;2.50;1.20;;;;;;;18.83;42.27;101239.72;4989319;28;20066;-79
2021/05/29 09:30:43;;;;;;;1.63;1.10;;;;;;;18.84;41.12;101247.69;4991630;28;20074;-83
2021/05/29 09:33:27;;;;;;;1.33;1.23;;;;;;;18.70;40.94;101246.88;4989194;28;20062;-79
2021/05/29 09:36:05;;;;;;;3.33;1.13;;;;;;;18.56;41.70;101253.16;4987234;28;20069;-79
2021/05/29 09:38:40;;;;;;;2.58;1.23;;;;;;;18.48;41.81;101242.91;5004371;28;20082;-82
2021/05/29 09:41:25;;;;;;;3.15;1.05;;;;;;;18.44;41.05;101249.44;4987518;28;20046;-78
2021/05/29 09:44:06;;;;;;;1.98;1.20;;;;;;;18.40;41.52;101245.25;5008316;28;20968;-80
2021/05/29 09:46:54;;;;;;;1.10;1.00;;;;;;;18.30;42.04;101244.13;5004139;28;20030;-80
2021/05/29 09:49:25;;;;;;;2.35;1.20;;;;;;;18.32;41.02;101247.56;5013957;28;20057;-79
2021/05/29 09:51:51;;;;;;;2.55;1.35;;;;;;;18.32;41.75;101241.34;4984077;28;20042;-79
2021/05/29 09:54:18;;;;;;;3.35;1.23;;;;;;;18.27;40.94;101238.97;4991650;28;20126;-79
2021/05/29 09:56:46;;;;;;;1.35;0.95;;;;;;;18.16;41.21;101241.50;4988033;28;20073;-79
2021/05/29 09:59:25;;;;;;;1.33;1.23;;;;;;;18.17;41.31;101243.22;5006677;28;20069;-80
2021/05/29 10:01:53;;;;;;;2.80;1.17;;;;;;;18.29;41.93;101237.03;5012368;28;20061;-81
2021/05/29 10:04:43;;;;;;;1.50;1.00;;;;;;;18.39;42.00;101237.31;5008670;28;20066;-80
2021/05/29 10:07:14;;;;;;;1.17;0.88;;;;;;;18.32;40.02;101247.56;5002590;28;20361;-79
2021/05/29 10:09:42;;;;;;;1.13;1.00;;;;;;;18.35;39.71;101247.38;4994679;28;20081;-81
2021/05/29 10:12:10;;;;;;;2.67;1.10;;;;;;;18.39;40.66;101235.50;4994312;28;20078;-82
2021/05/29 10:14:38;;;;;;;1.42;0.80;;;;;;;18.34;39.44;101234.94;4993828;28;20092;-83
2021/05/29 10:17:08;;;;;;;2.63;1.05;;;;;;;18.25;40.14;101243.59;4976541;28;20099;-83
2021/05/29 10:19:39;;;;;;;1.70;1.00;;;;;;;18.13;39.58;101228.28;4978035;28;20046;-82
2021/05/29 10:22:12;;;;;;;1.98;0.88;;;;;;;18.19;40.20;101225.22;4993317;28;20065;-83
2021/05/29 10:24:39;;;;;;;0.98;0.90;;;;;;;18.41;40.51;101230.03;4996568;28;20050;-81
2021/05/29 10:27:09;;;;;;;2.15;1.13;;;;;;;18.49;40.07;101231.22;4979328;28;20058;-82
2021/05/29 10:29:36;;;;;;;1.30;0.88;;;;;;;18.58;40.78;101229.75;5000195;28;20154;-83
2021/05/29 10:32:20;;;;;;;1.40;0.82;;;;;;;18.81;40.85;101231.78;4978576;28;20096;-84
2021/05/29 10:34:57;;;;;;;4.20;1.10;;;;;;;18.99;40.83;101221.59;4990061;28;20050;-83
2021/05/29 10:37:44;;;;;;;1.33;1.02;;;;;;;19.24;39.91;101232.34;4991630;28;20077;-82
2021/05/29 10:40:19;;;;;;;1.85;0.80;;;;;;;19.45;38.54;101227.31;4991500;28;20050;-82
2021/05/29 10:42:49;;;;;;;2.63;1.00;;;;;;;19.53;38.51;101218.72;4988577;28;20401;-82
2021/05/29 10:45:24;;;;;;;3.92;1.20;;;;;;;19.59;38.31;101224.53;4987919;28;20054;-82
2021/05/29 10:47:59;;;;;;;1.48;1.00;;;;;;;19.38;37.89;101217.94;4988801;28;20053;-82
2021/05/29 10:53:44;;;;;;;2.13;1.13;;;;;;;19.20;39.00;101225.47;4991252;28;20061;-84
2021/05/29 10:56:20;;;;;;;2.22;1.10;;;;;;;19.37;37.64;101215.38;4971414;28;20057;-84
2021/05/29 10:59:08;;;;;;;1.88;0.90;;;;;;;19.43;37.14;101209.56;4995056;28;20066;-84
2021/05/29 11:01:45;;;;;;;1.58;1.00;;;;;;;19.59;37.38;101207.53;4999510;28;20062;-84
2021/05/29 11:04:18;;;;;;;1.77;1.08;;;;;;;19.61;38.41;101214.53;4996451;28;20201;-83
2021/05/29 11:06:59;;;;;;;3.95;1.20;;;;;;;19.61;38.56;101208.31;4994945;28;20050;-84
2021/05/29 11:09:26;;;;;;;1.92;0.90;;;;;;;19.50;38.14;101203.72;4978477;28;20068;-84
2021/05/29 11:11:57;;;;;;;1.38;1.00;;;;;;;19.49;38.98;101196.63;5001357;28;20046;-84
2021/05/29 11:14:51;;;;;;;2.25;0.80;;;;;;;19.61;36.56;101198.41;4984410;28;20079;-84
2021/05/29 11:17:19;;;;;;;1.13;0.77;;;;;;;19.74;35.67;101201.06;4990782;28;20449;-84
2021/05/29 11:20:05;;;;;;;1.38;0.80;;;;;;;19.47;35.52;101203.88;4975761;28;20058;-83
2021/05/29 11:22:39;;;;;;;1.80;0.70;;;;;;;19.33;37.02;101200.47;5004930;28;20133;-84
2021/05/29 11:25:09;;;;;;;0.93;0.77;;;;;;;19.51;36.71;101201.88;4997935;28;20807;-83
2021/05/29 11:27:38;;;;;;;2.30;0.95;;;;;;;19.65;36.70;101191.00;4976968;28;20027;-82
2021/05/29 11:30:13;;;;;;;1.33;0.90;;;;;;;19.64;37.35;101193.78;4997671;28;20050;-83
2021/05/29 11:35:50;;;;;;;3.08;1.00;;;;;;;19.59;38.63;101194.97;5002399;28;20098;-84
2021/05/29 11:38:25;;;;;;;0.80;0.80;;;;;;;19.46;37.08;101188.75;4987819;28;20057;-84
2021/05/29 11:40:56;;;;;;;1.10;1.00;;;;;;;19.71;36.21;101203.13;4987647;28;20081;-84
2021/05/29 11:43:53;;;;;;;1.70;0.88;;;;;;;19.92;35.17;101194.34;4991049;28;20042;-84
2021/05/29 11:46:27;;;;;;;1.20;1.10;;;;;;;20.05;35.92;101186.25;4993131;28;20069;-83
2021/05/29 11:48:57;;;;;;;1.52;1.20;;;;;;;19.95;36.62;101191.44;4976895;28;20220;-82
2021/05/29 11:51:27;;;;;;;1.60;0.90;;;;;;;20.10;37.04;101192.16;4982783;28;20038;-82
2021/05/29 11:54:15;;;;;;;0.80;0.80;;;;;;;20.30;37.03;101187.97;4979957;28;21354;-84
2021/05/29 11:56:49;;;;;;;1.05;0.90;;;;;;;20.50;34.70;101171.19;4988536;28;20485;-84